AVA9446 SKRG-SKSM
Flight info
| Callsign | AVA9446 |
|---|---|
| Flight time | 0h 50m |
| Altitude | 32000 |
| Route | BIVIG1B BIVIG UW3 MGN DCT DARNI DARNI1C |
| Aircraft | A320/M-SDE3FGHIRWY/LB1 |
Departure
| Time | 2026-05-05 00:22 |
|---|---|
| Airport | Jose Maria Córdova International Airport (SKRG) |
Arrival
| Time | 2026-05-05 01:13 |
|---|---|
| Airport | Simón Bolívar International Airport (SKSM) |
| Time | Latitude | Longitude | Altitude | Speed | Heading |
|---|---|---|---|---|---|
| 2026-05-04 23:43 | 6.17106 | -75.42685 | 7017 ft | 0 kts | 280° |
| 2026-05-05 00:15 | 6.17102 | -75.42660 | 7017 ft | 4 kts | 279° |
| 2026-05-05 00:16 | 6.17099 | -75.42638 | 7018 ft | 4 kts | 258° |
| 2026-05-05 00:16 | 6.17111 | -75.42620 | 7017 ft | 4 kts | 197° |
| 2026-05-05 00:16 | 6.17138 | -75.42616 | 7016 ft | 4 kts | 179° |
| 2026-05-05 00:16 | 6.17155 | -75.42617 | 7016 ft | 0 kts | 177° |
| 2026-05-05 00:18 | 6.17154 | -75.42617 | 7016 ft | 1 kts | 177° |
| 2026-05-05 00:18 | 6.17124 | -75.42615 | 7018 ft | 14 kts | 177° |
| 2026-05-05 00:18 | 6.17022 | -75.42579 | 7021 ft | 16 kts | 149° |
| 2026-05-05 00:18 | 6.16925 | -75.42519 | 7017 ft | 17 kts | 150° |
| 2026-05-05 00:19 | 6.16804 | -75.42484 | 7013 ft | 21 kts | 181° |
| 2026-05-05 00:19 | 6.16631 | -75.42484 | 7001 ft | 27 kts | 181° |
| 2026-05-05 00:19 | 6.16430 | -75.42482 | 6992 ft | 30 kts | 179° |
| 2026-05-05 00:19 | 6.16218 | -75.42480 | 6987 ft | 30 kts | 180° |
| 2026-05-05 00:20 | 6.16008 | -75.42478 | 6983 ft | 29 kts | 179° |
| 2026-05-05 00:20 | 6.15804 | -75.42475 | 6981 ft | 29 kts | 179° |
| 2026-05-05 00:20 | 6.15600 | -75.42474 | 6979 ft | 29 kts | 179° |
| 2026-05-05 00:20 | 6.15398 | -75.42473 | 6979 ft | 29 kts | 180° |
| 2026-05-05 00:21 | 6.15199 | -75.42474 | 6978 ft | 29 kts | 179° |
| 2026-05-05 00:21 | 6.15001 | -75.42472 | 6977 ft | 28 kts | 180° |
| 2026-05-05 00:21 | 6.14902 | -75.42406 | 6977 ft | 14 kts | 60° |
| 2026-05-05 00:21 | 6.14945 | -75.42324 | 6977 ft | 16 kts | 35° |
| 2026-05-05 00:22 | 6.15164 | -75.42305 | 6979 ft | 63 kts | 359° |
| 2026-05-05 00:22 | 6.15829 | -75.42310 | 6980 ft | 126 kts | 360° |
| 2026-05-05 00:22 | 6.16882 | -75.42318 | 7024 ft | 174 kts | 0° |
| 2026-05-05 00:22 | 6.18061 | -75.42325 | 7625 ft | 170 kts | 1° |
| 2026-05-05 00:23 | 6.19262 | -75.42328 | 8137 ft | 171 kts | 1° |
| 2026-05-05 00:23 | 6.20451 | -75.42329 | 8455 ft | 172 kts | 3° |
| 2026-05-05 00:23 | 6.21575 | -75.41993 | 8745 ft | 168 kts | 41° |
| 2026-05-05 00:23 | 6.22227 | -75.41071 | 9057 ft | 164 kts | 77° |
| 2026-05-05 00:24 | 6.22242 | -75.39940 | 9381 ft | 162 kts | 97° |
| 2026-05-05 00:24 | 6.22323 | -75.38809 | 9676 ft | 165 kts | 73° |
| 2026-05-05 00:24 | 6.22798 | -75.37751 | 9979 ft | 167 kts | 66° |
| 2026-05-05 00:24 | 6.23311 | -75.36689 | 10210 ft | 175 kts | 66° |
| 2026-05-05 00:25 | 6.23861 | -75.35549 | 10331 ft | 188 kts | 66° |
| 2026-05-05 00:25 | 6.24465 | -75.34301 | 10369 ft | 209 kts | 66° |
| 2026-05-05 00:25 | 6.25132 | -75.32922 | 10474 ft | 230 kts | 66° |
| 2026-05-05 00:25 | 6.25864 | -75.31409 | 10568 ft | 252 kts | 65° |
| 2026-05-05 00:26 | 6.26669 | -75.29752 | 10741 ft | 276 kts | 65° |
| 2026-05-05 00:26 | 6.27549 | -75.27946 | 10928 ft | 299 kts | 65° |
| 2026-05-05 00:26 | 6.28515 | -75.26007 | 11083 ft | 323 kts | 61° |
| 2026-05-05 00:26 | 6.30081 | -75.24315 | 11354 ft | 342 kts | 33° |
| 2026-05-05 00:27 | 6.32340 | -75.23505 | 11889 ft | 351 kts | 9° |
| 2026-05-05 00:27 | 6.34803 | -75.23412 | 12429 ft | 357 kts | 358° |
| 2026-05-05 00:27 | 6.37289 | -75.23648 | 13074 ft | 361 kts | 354° |
| 2026-05-05 00:27 | 6.39797 | -75.23963 | 13716 ft | 365 kts | 355° |
| 2026-05-05 00:28 | 6.42335 | -75.24222 | 14286 ft | 368 kts | 357° |
| 2026-05-05 00:28 | 6.44896 | -75.24378 | 14857 ft | 370 kts | 359° |
| 2026-05-05 00:28 | 6.47475 | -75.24392 | 15405 ft | 372 kts | 4° |
| 2026-05-05 00:28 | 6.50065 | -75.24229 | 15946 ft | 374 kts | 6° |
| 2026-05-05 00:29 | 6.52662 | -75.23962 | 16495 ft | 376 kts | 8° |
| 2026-05-05 00:29 | 6.55233 | -75.23666 | 17040 ft | 378 kts | 8° |
| 2026-05-05 00:29 | 6.57858 | -75.23372 | 17582 ft | 381 kts | 7° |
| 2026-05-05 00:29 | 6.60503 | -75.23100 | 18112 ft | 384 kts | 7° |
| 2026-05-05 00:30 | 6.63170 | -75.22851 | 18613 ft | 386 kts | 6° |
| 2026-05-05 00:30 | 6.65852 | -75.22619 | 19131 ft | 387 kts | 6° |
| 2026-05-05 00:30 | 6.68542 | -75.22391 | 19622 ft | 389 kts | 6° |
| 2026-05-05 00:30 | 6.71244 | -75.22162 | 20113 ft | 391 kts | 6° |
| 2026-05-05 00:31 | 6.73965 | -75.21929 | 20597 ft | 393 kts | 6° |
| 2026-05-05 00:31 | 6.76700 | -75.21694 | 21065 ft | 395 kts | 6° |
| 2026-05-05 00:31 | 6.79448 | -75.21458 | 21541 ft | 398 kts | 6° |
| 2026-05-05 00:31 | 6.82213 | -75.21222 | 22024 ft | 400 kts | 6° |
| 2026-05-05 00:32 | 6.84997 | -75.20986 | 22491 ft | 402 kts | 6° |
| 2026-05-05 00:32 | 6.87793 | -75.20745 | 22957 ft | 405 kts | 6° |
| 2026-05-05 00:32 | 6.90611 | -75.20501 | 23425 ft | 407 kts | 6° |
| 2026-05-05 00:32 | 6.93438 | -75.20253 | 23799 ft | 409 kts | 6° |
| 2026-05-05 00:33 | 6.96281 | -75.20002 | 24149 ft | 412 kts | 6° |
| 2026-05-05 00:33 | 6.99145 | -75.19749 | 24494 ft | 414 kts | 6° |
| 2026-05-05 00:33 | 7.02029 | -75.19495 | 24828 ft | 417 kts | 6° |
| 2026-05-05 00:33 | 7.04923 | -75.19175 | 25154 ft | 419 kts | 8° |
| 2026-05-05 00:34 | 7.07823 | -75.18767 | 25453 ft | 422 kts | 9° |
| 2026-05-05 00:34 | 7.10731 | -75.18305 | 25775 ft | 424 kts | 10° |
| 2026-05-05 00:34 | 7.13651 | -75.17820 | 26092 ft | 427 kts | 10° |
| 2026-05-05 00:34 | 7.16593 | -75.17333 | 26402 ft | 429 kts | 10° |
| 2026-05-05 00:35 | 7.19550 | -75.16857 | 26703 ft | 432 kts | 9° |
| 2026-05-05 00:35 | 7.22531 | -75.16393 | 26991 ft | 434 kts | 9° |
| 2026-05-05 00:35 | 7.25528 | -75.15940 | 27285 ft | 437 kts | 9° |
| 2026-05-05 00:35 | 7.28541 | -75.15490 | 27562 ft | 439 kts | 9° |
| 2026-05-05 00:36 | 7.31576 | -75.15036 | 27853 ft | 441 kts | 9° |
| 2026-05-05 00:36 | 7.34621 | -75.14577 | 28108 ft | 444 kts | 9° |
| 2026-05-05 00:36 | 7.37640 | -75.14119 | 28381 ft | 446 kts | 9° |
| 2026-05-05 00:36 | 7.40714 | -75.13652 | 28650 ft | 448 kts | 9° |
| 2026-05-05 00:37 | 7.43811 | -75.13185 | 28913 ft | 451 kts | 9° |
| 2026-05-05 00:37 | 7.46921 | -75.12718 | 29164 ft | 453 kts | 9° |
| 2026-05-05 00:37 | 7.50047 | -75.12246 | 29389 ft | 455 kts | 9° |
| 2026-05-05 00:37 | 7.53187 | -75.11769 | 29633 ft | 458 kts | 9° |
| 2026-05-05 00:38 | 7.56347 | -75.11287 | 29869 ft | 460 kts | 9° |
| 2026-05-05 00:38 | 7.59522 | -75.10803 | 30087 ft | 462 kts | 9° |
| 2026-05-05 00:38 | 7.62706 | -75.10319 | 30279 ft | 464 kts | 9° |
| 2026-05-05 00:38 | 7.65902 | -75.09831 | 30478 ft | 465 kts | 9° |
| 2026-05-05 00:39 | 7.69108 | -75.09343 | 30679 ft | 467 kts | 9° |
| 2026-05-05 00:39 | 7.72326 | -75.08855 | 30860 ft | 468 kts | 9° |
| 2026-05-05 00:39 | 7.75553 | -75.08366 | 31038 ft | 470 kts | 9° |
| 2026-05-05 00:39 | 7.78790 | -75.07874 | 31212 ft | 471 kts | 9° |
| 2026-05-05 00:40 | 7.82030 | -75.07378 | 31466 ft | 470 kts | 9° |
| 2026-05-05 00:40 | 7.85261 | -75.06881 | 31743 ft | 470 kts | 9° |
| 2026-05-05 00:40 | 7.88490 | -75.06380 | 31889 ft | 469 kts | 9° |
| 2026-05-05 00:40 | 7.91668 | -75.05883 | 31917 ft | 456 kts | 9° |
| 2026-05-05 00:41 | 7.94778 | -75.05401 | 31909 ft | 450 kts | 9° |
| 2026-05-05 00:41 | 8.00948 | -75.04452 | 31912 ft | 447 kts | 9° |
| 2026-05-05 00:42 | 8.07100 | -75.03511 | 31914 ft | 447 kts | 9° |
| 2026-05-05 00:42 | 8.13239 | -75.02565 | 31912 ft | 446 kts | 9° |
| 2026-05-05 00:43 | 8.19373 | -75.01616 | 31907 ft | 445 kts | 9° |
| 2026-05-05 00:43 | 8.25458 | -75.00672 | 31903 ft | 445 kts | 9° |
| 2026-05-05 00:44 | 8.31579 | -74.99727 | 31905 ft | 445 kts | 9° |
| 2026-05-05 00:44 | 8.37699 | -74.98785 | 31901 ft | 444 kts | 8° |
| 2026-05-05 00:45 | 8.43809 | -74.97848 | 31897 ft | 444 kts | 9° |
| 2026-05-05 00:45 | 8.49917 | -74.96905 | 31898 ft | 444 kts | 9° |
| 2026-05-05 00:46 | 8.56016 | -74.95958 | 31899 ft | 443 kts | 9° |
| 2026-05-05 00:46 | 8.62119 | -74.95017 | 31898 ft | 443 kts | 9° |
| 2026-05-05 00:47 | 8.68221 | -74.94074 | 31893 ft | 443 kts | 9° |
| 2026-05-05 00:47 | 8.74313 | -74.93132 | 31893 ft | 443 kts | 9° |
| 2026-05-05 00:48 | 8.80402 | -74.92191 | 31887 ft | 443 kts | 8° |
| 2026-05-05 00:48 | 8.86463 | -74.91250 | 31884 ft | 444 kts | 8° |
| 2026-05-05 00:49 | 8.92579 | -74.90299 | 31888 ft | 444 kts | 8° |
| 2026-05-05 00:49 | 8.98706 | -74.89347 | 31890 ft | 445 kts | 8° |
| 2026-05-05 00:50 | 9.04789 | -74.88405 | 31888 ft | 445 kts | 8° |
| 2026-05-05 00:50 | 9.10906 | -74.87466 | 31889 ft | 445 kts | 8° |
| 2026-05-05 00:51 | 9.17027 | -74.86521 | 31890 ft | 445 kts | 8° |
| 2026-05-05 00:51 | 9.23147 | -74.85572 | 31892 ft | 445 kts | 8° |
| 2026-05-05 00:52 | 9.29243 | -74.84478 | 31892 ft | 445 kts | 16° |
| 2026-05-05 00:52 | 9.35090 | -74.82401 | 31894 ft | 446 kts | 19° |
| 2026-05-05 00:53 | 9.40927 | -74.80273 | 31894 ft | 446 kts | 19° |
| 2026-05-05 00:53 | 9.46763 | -74.78153 | 31887 ft | 446 kts | 19° |
| 2026-05-05 00:54 | 9.52605 | -74.76032 | 31888 ft | 446 kts | 19° |
| 2026-05-05 00:54 | 9.58446 | -74.73903 | 31888 ft | 446 kts | 19° |
| 2026-05-05 00:55 | 9.64289 | -74.71776 | 31888 ft | 446 kts | 19° |
| 2026-05-05 00:55 | 9.70128 | -74.69651 | 31342 ft | 454 kts | 19° |
| 2026-05-05 00:55 | 9.73198 | -74.68536 | 29757 ft | 472 kts | 19° |
| 2026-05-05 00:56 | 9.76292 | -74.67413 | 28275 ft | 483 kts | 19° |
| 2026-05-05 00:56 | 9.79456 | -74.66262 | 27087 ft | 483 kts | 19° |
| 2026-05-05 00:56 | 9.82624 | -74.65108 | 25880 ft | 485 kts | 19° |
| 2026-05-05 00:56 | 9.85783 | -74.63956 | 25041 ft | 479 kts | 19° |
| 2026-05-05 00:57 | 9.88900 | -74.62822 | 24215 ft | 473 kts | 19° |
| 2026-05-05 00:57 | 9.91980 | -74.61700 | 23396 ft | 468 kts | 19° |
| 2026-05-05 00:57 | 9.95028 | -74.60591 | 22531 ft | 462 kts | 19° |
| 2026-05-05 00:57 | 9.98032 | -74.59499 | 21798 ft | 455 kts | 20° |
| 2026-05-05 00:58 | 10.00994 | -74.58423 | 21076 ft | 450 kts | 20° |
| 2026-05-05 00:58 | 10.03922 | -74.57357 | 20370 ft | 445 kts | 20° |
| 2026-05-05 00:58 | 10.06819 | -74.56301 | 19693 ft | 440 kts | 20° |
| 2026-05-05 00:58 | 10.09692 | -74.55252 | 19030 ft | 437 kts | 21° |
| 2026-05-05 00:59 | 10.12532 | -74.54215 | 18402 ft | 433 kts | 21° |
| 2026-05-05 00:59 | 10.15353 | -74.53181 | 17736 ft | 429 kts | 22° |
| 2026-05-05 00:59 | 10.18112 | -74.52089 | 17147 ft | 423 kts | 24° |
| 2026-05-05 00:59 | 10.20797 | -74.50926 | 16600 ft | 417 kts | 26° |
| 2026-05-05 01:00 | 10.23425 | -74.49728 | 16044 ft | 412 kts | 26° |
| 2026-05-05 01:00 | 10.26023 | -74.48529 | 15503 ft | 408 kts | 27° |
| 2026-05-05 01:00 | 10.28597 | -74.47348 | 14960 ft | 404 kts | 26° |
| 2026-05-05 01:00 | 10.31158 | -74.46187 | 14393 ft | 402 kts | 26° |
| 2026-05-05 01:01 | 10.33706 | -74.45045 | 13789 ft | 400 kts | 26° |
| 2026-05-05 01:01 | 10.36241 | -74.43921 | 13322 ft | 393 kts | 26° |
| 2026-05-05 01:01 | 10.38743 | -74.42817 | 12705 ft | 390 kts | 26° |
| 2026-05-05 01:01 | 10.41225 | -74.41724 | 12077 ft | 388 kts | 26° |
| 2026-05-05 01:02 | 10.43691 | -74.40636 | 11426 ft | 386 kts | 26° |
| 2026-05-05 01:02 | 10.46107 | -74.39566 | 10998 ft | 378 kts | 26° |
| 2026-05-05 01:02 | 10.48462 | -74.38523 | 10882 ft | 361 kts | 26° |
| 2026-05-05 01:02 | 10.50743 | -74.37510 | 10759 ft | 346 kts | 26° |
| 2026-05-05 01:03 | 10.52183 | -74.36869 | 10681 ft | 336 kts | 26° |
| 2026-05-05 01:03 | 10.54283 | -74.35934 | 10574 ft | 323 kts | 26° |
| 2026-05-05 01:03 | 10.56945 | -74.34747 | 10415 ft | 308 kts | 26° |
| 2026-05-05 01:03 | 10.58885 | -74.33883 | 10192 ft | 301 kts | 26° |
| 2026-05-05 01:04 | 10.60794 | -74.33036 | 10119 ft | 299 kts | 26° |
| 2026-05-05 01:04 | 10.63997 | -74.31614 | 9651 ft | 302 kts | 26° |
| 2026-05-05 01:04 | 10.65917 | -74.30761 | 9262 ft | 300 kts | 26° |
| 2026-05-05 01:05 | 10.67828 | -74.29913 | 8823 ft | 299 kts | 26° |
| 2026-05-05 01:05 | 10.69726 | -74.29069 | 8425 ft | 298 kts | 26° |
| 2026-05-05 01:05 | 10.71617 | -74.28229 | 8063 ft | 295 kts | 26° |
| 2026-05-05 01:05 | 10.73501 | -74.27390 | 7626 ft | 295 kts | 26° |
| 2026-05-05 01:06 | 10.75377 | -74.26555 | 7227 ft | 294 kts | 26° |
| 2026-05-05 01:06 | 10.77247 | -74.25725 | 6831 ft | 293 kts | 25° |
| 2026-05-05 01:06 | 10.79109 | -74.24897 | 6438 ft | 291 kts | 25° |
| 2026-05-05 01:06 | 10.80959 | -74.24072 | 6032 ft | 289 kts | 25° |
| 2026-05-05 01:07 | 10.82794 | -74.23254 | 5637 ft | 287 kts | 25° |
| 2026-05-05 01:07 | 10.84664 | -74.22586 | 5252 ft | 285 kts | 11° |
| 2026-05-05 01:07 | 10.86598 | -74.22512 | 4872 ft | 272 kts | 359° |
| 2026-05-05 01:07 | 10.88423 | -74.22559 | 4516 ft | 259 kts | 359° |
| 2026-05-05 01:08 | 10.90181 | -74.22600 | 4168 ft | 246 kts | 359° |
| 2026-05-05 01:08 | 10.91857 | -74.22637 | 3841 ft | 236 kts | 359° |
| 2026-05-05 01:08 | 10.93463 | -74.22672 | 3531 ft | 226 kts | 359° |
| 2026-05-05 01:08 | 10.95000 | -74.22705 | 3231 ft | 217 kts | 359° |
| 2026-05-05 01:09 | 10.96472 | -74.22737 | 2972 ft | 206 kts | 359° |
| 2026-05-05 01:09 | 10.97867 | -74.22768 | 2678 ft | 197 kts | 359° |
| 2026-05-05 01:09 | 10.99220 | -74.22798 | 2394 ft | 193 kts | 359° |
| 2026-05-05 01:09 | 11.00538 | -74.22828 | 2135 ft | 183 kts | 359° |
| 2026-05-05 01:10 | 11.01737 | -74.22854 | 1920 ft | 163 kts | 359° |
| 2026-05-05 01:10 | 11.02819 | -74.22876 | 1700 ft | 150 kts | 358° |
| 2026-05-05 01:10 | 11.03836 | -74.22898 | 1501 ft | 144 kts | 358° |
| 2026-05-05 01:10 | 11.04829 | -74.22919 | 1310 ft | 142 kts | 358° |
| 2026-05-05 01:11 | 11.05813 | -74.22940 | 1114 ft | 141 kts | 358° |
| 2026-05-05 01:11 | 11.06792 | -74.22960 | 930 ft | 141 kts | 359° |
| 2026-05-05 01:11 | 11.07770 | -74.22978 | 760 ft | 140 kts | 359° |
| 2026-05-05 01:11 | 11.08730 | -74.22998 | 583 ft | 140 kts | 359° |
| 2026-05-05 01:12 | 11.09698 | -74.23019 | 380 ft | 138 kts | 360° |
| 2026-05-05 01:12 | 11.10656 | -74.23038 | 168 ft | 136 kts | 1° |
| 2026-05-05 01:12 | 11.11588 | -74.23054 | 35 ft | 125 kts | 359° |
| 2026-05-05 01:12 | 11.12238 | -74.23068 | 37 ft | 57 kts | 359° |
| 2026-05-05 01:13 | 11.12550 | -74.23075 | 37 ft | 29 kts | 359° |
| 2026-05-05 01:13 | 11.12683 | -74.23089 | 36 ft | 14 kts | 329° |
| 2026-05-05 01:13 | 11.12709 | -74.23080 | 36 ft | 6 kts | 155° |
| 2026-05-05 01:13 | 11.12661 | -74.23078 | 36 ft | 11 kts | 183° |
| 2026-05-05 01:14 | 11.12558 | -74.23078 | 37 ft | 17 kts | 175° |
| 2026-05-05 01:14 | 11.12451 | -74.23075 | 38 ft | 14 kts | 179° |
| 2026-05-05 01:14 | 11.12352 | -74.23072 | 38 ft | 15 kts | 178° |
| 2026-05-05 01:14 | 11.12251 | -74.23075 | 37 ft | 14 kts | 193° |
| 2026-05-05 01:15 | 11.12156 | -74.23098 | 36 ft | 14 kts | 192° |
| 2026-05-05 01:15 | 11.12070 | -74.23117 | 37 ft | 12 kts | 191° |
| 2026-05-05 01:15 | 11.11997 | -74.23131 | 38 ft | 10 kts | 191° |
| 2026-05-05 01:15 | 11.11917 | -74.23148 | 37 ft | 12 kts | 192° |
| 2026-05-05 01:16 | 11.11839 | -74.23164 | 38 ft | 8 kts | 184° |
| 2026-05-05 01:16 | 11.11816 | -74.23193 | 39 ft | 5 kts | 265° |
| 2026-05-05 01:16 | 11.11815 | -74.23210 | 39 ft | 0 kts | 269° |
| 2026-05-05 01:16 | 11.11815 | -74.23215 | 39 ft | 0 kts | 269° |